createdAt,value
2018-10-01T00:01:01.152Z,12.3
2018-10-01T00:06:01.132Z,12.5
2018-10-01T00:11:01.141Z,12.2
2018-10-01T00:17:01.091Z,13.0
2018-10-01T00:22:01.103Z,12.3
2018-10-01T00:27:01.099Z,13.0
2018-10-01T00:32:01.125Z,12.8
2018-10-01T00:37:06.097Z,13.7
2018-10-01T00:42:06.108Z,13.8
2018-10-01T00:47:01.130Z,14.1
2018-10-01T00:52:06.108Z,14.5
2018-10-01T00:57:01.143Z,15.0
2018-10-01T01:02:01.091Z,15.1
2018-10-01T01:07:01.133Z,15.0
2018-10-01T01:12:01.094Z,15.5
2018-10-01T01:17:01.132Z,15.4
2018-10-01T01:27:01.135Z,15.2
2018-10-01T01:32:06.145Z,14.8
2018-10-01T01:37:06.104Z,15.0
2018-10-01T01:42:06.128Z,14.5
2018-10-01T01:47:01.093Z,15.5
2018-10-01T01:52:01.093Z,14.8
2018-10-01T01:57:01.125Z,14.1
2018-10-01T02:02:01.138Z,13.2
2018-10-01T02:07:01.134Z,13.1
2018-10-01T02:12:01.137Z,12.4
2018-10-01T02:17:01.141Z,12.2
2018-10-01T02:22:01.151Z,12.3
2018-10-01T02:27:01.093Z,12.7
2018-10-01T02:32:01.133Z,13.0
2018-10-01T02:37:01.139Z,12.5
2018-10-01T02:42:01.158Z,12.8
2018-10-01T02:47:01.144Z,13.3
2018-10-01T02:52:01.138Z,13.1
2018-10-01T02:57:01.141Z,12.3
2018-10-01T03:02:01.134Z,11.9
2018-10-01T03:07:01.107Z,12.5
2018-10-01T03:12:01.097Z,12.3
2018-10-01T03:17:01.099Z,12.0
2018-10-01T03:22:01.113Z,12.2
2018-10-01T03:27:01.114Z,12.1
2018-10-01T03:32:01.114Z,10.6
2018-10-01T03:37:01.089Z,10.3
2018-10-01T03:42:01.098Z,9.8
2018-10-01T03:47:01.103Z,10.0
2018-10-01T03:52:01.113Z,9.9
2018-10-01T03:57:01.099Z,10.9
2018-10-01T04:02:01.100Z,11.2
2018-10-01T04:07:01.108Z,11.8
2018-10-01T04:12:01.101Z,12.2
2018-10-01T04:17:01.091Z,12.4
2018-10-01T04:27:01.093Z,12.0
2018-10-01T04:32:01.091Z,11.2
2018-10-01T04:37:01.110Z,11.0
2018-10-01T04:47:01.103Z,10.7
2018-10-01T04:52:01.112Z,11.2
2018-10-01T04:57:01.109Z,11.9
2018-10-01T05:02:01.108Z,11.8
2018-10-01T05:07:01.110Z,11.6
2018-10-01T05:12:01.107Z,11.8
2018-10-01T05:22:01.099Z,11.2
2018-10-01T05:27:01.138Z,10.2
2018-10-01T05:32:01.154Z,10.4
2018-10-01T05:37:01.099Z,10.2
2018-10-01T05:47:01.102Z,10.6
2018-10-01T05:52:01.091Z,11.5
2018-10-01T05:57:01.094Z,11.3
2018-10-01T06:02:01.098Z,11.2
2018-10-01T06:07:01.097Z,11.0
2018-10-01T06:12:02.388Z,10.5
2018-10-01T06:22:01.103Z,11.3
2018-10-01T06:27:01.108Z,11.4
2018-10-01T06:32:01.093Z,11.7
2018-10-01T06:37:01.097Z,12.3
2018-10-01T06:42:01.168Z,12.2
2018-10-01T06:47:01.101Z,11.2
2018-10-01T06:52:01.105Z,11.1
2018-10-01T06:57:01.103Z,10.2
2018-10-01T07:02:01.104Z,9.3
2018-10-01T07:07:01.135Z,8.6
2018-10-01T07:12:01.122Z,8.4
2018-10-01T07:17:06.243Z,7.8
2018-10-01T07:22:06.094Z,8.4
2018-10-01T07:27:06.115Z,8.5
2018-10-01T07:32:01.127Z,8.4
2018-10-01T07:37:06.099Z,8.0
2018-10-01T07:42:01.133Z,8.3
2018-10-01T07:47:06.115Z,7.1
2018-10-01T07:52:01.138Z,6.3
2018-10-01T07:58:01.093Z,6.0
2018-10-01T08:03:01.094Z,5.2
2018-10-01T08:08:01.172Z,4.2
2018-10-01T08:13:06.103Z,4.0
2018-10-01T08:18:06.114Z,3.6
2018-10-01T08:23:01.167Z,3.1
2018-10-01T08:28:01.137Z,2.9
2018-10-01T08:38:06.237Z,2.7
2018-10-01T08:43:06.104Z,2.6
2018-10-01T08:48:01.122Z,2.4
2018-10-01T09:03:06.111Z,2.2
2018-10-01T09:08:01.157Z,2.4
2018-10-01T09:14:01.105Z,2.2
2018-10-01T09:19:01.096Z,2.0
2018-10-01T09:24:01.099Z,1.7
2018-10-01T09:29:01.122Z,1.8
2018-10-01T09:34:01.104Z,1.6
2018-10-01T09:44:01.116Z,1.7
2018-10-01T09:49:01.126Z,1.9
2018-10-01T09:54:01.094Z,2.0
2018-10-01T10:09:01.128Z,2.0
2018-10-01T10:19:06.104Z,2.5
2018-10-01T10:24:06.111Z,2.6
2018-10-01T10:34:01.131Z,2.8
2018-10-01T10:39:06.098Z,2.9
2018-10-01T10:44:01.150Z,2.3
2018-10-01T10:49:01.133Z,2.1
2018-10-01T10:59:01.159Z,2.0
2018-10-01T11:04:06.167Z,1.9
2018-10-01T11:09:01.106Z,2.1
2018-10-01T11:14:01.258Z,2.2
2018-10-01T11:19:01.291Z,2.1
2018-10-01T11:24:01.094Z,2.4
2018-10-01T11:34:01.096Z,2.2
2018-10-01T11:44:01.101Z,2.3
2018-10-01T11:49:01.108Z,2.2
2018-10-01T11:54:01.113Z,2.4
2018-10-01T11:59:02.018Z,2.7
2018-10-01T12:04:01.222Z,3.1
2018-10-01T12:10:01.181Z,3.2
2018-10-01T12:15:01.171Z,3.2
2018-10-01T12:20:01.143Z,3.4
2018-10-01T12:25:01.101Z,3.5
2018-10-01T12:30:01.174Z,3.7
2018-10-01T12:35:01.111Z,3.8
2018-10-01T12:45:01.197Z,3.3
2018-10-01T12:50:01.097Z,3.5
2018-10-01T12:55:01.099Z,3.1
2018-10-01T13:00:01.098Z,3.2
2018-10-01T13:10:01.097Z,3.3
2018-10-01T13:15:01.106Z,2.9
2018-10-01T13:20:01.107Z,3.0
2018-10-01T13:30:01.166Z,3.1
2018-10-01T13:35:01.093Z,3.0
2018-10-01T13:45:01.970Z,3.6
2018-10-01T13:50:01.096Z,3.5
2018-10-01T13:55:01.103Z,3.0
2018-10-01T14:00:01.107Z,3.1
2018-10-01T14:05:01.107Z,3.3
2018-10-01T14:10:01.112Z,2.4
2018-10-01T14:15:01.101Z,2.8
2018-10-01T14:20:01.321Z,3.0
2018-10-01T14:30:01.167Z,2.8
2018-10-01T14:35:01.100Z,2.6
2018-10-01T14:40:01.100Z,2.0
2018-10-01T14:45:01.107Z,2.0
2018-10-01T14:55:01.104Z,2.4
2018-10-01T15:00:06.257Z,2.4
2018-10-01T15:15:01.106Z,2.4
2018-10-01T15:20:01.105Z,2.0
2018-10-01T15:30:01.115Z,2.0
2018-10-01T15:46:01.094Z,2.2
2018-10-01T16:01:01.101Z,2.8
2018-10-01T16:11:01.104Z,2.6
2018-10-01T16:16:01.107Z,2.8
2018-10-01T16:26:01.106Z,2.2
2018-10-01T16:41:01.094Z,2.0
2018-10-01T16:46:01.099Z,2.3
2018-10-01T16:56:01.110Z,2.7
2018-10-01T17:01:01.104Z,2.9
2018-10-01T17:06:01.090Z,3.0
2018-10-01T17:11:01.089Z,2.8
2018-10-01T17:16:01.097Z,3.0
2018-10-01T17:21:01.093Z,2.6
2018-10-01T17:26:01.102Z,3.1
2018-10-01T17:31:01.102Z,3.2
2018-10-01T17:41:01.102Z,3.3
2018-10-01T17:46:01.106Z,4.0
2018-10-01T17:51:01.102Z,3.5
2018-10-01T17:56:01.092Z,3.4
2018-10-01T18:06:01.223Z,3.5
2018-10-01T18:11:01.098Z,3.2
2018-10-01T18:16:01.098Z,3.3
2018-10-01T18:21:01.100Z,3.8
2018-10-01T18:26:01.129Z,4.2
2018-10-01T18:31:01.103Z,4.0
2018-10-01T18:36:01.192Z,3.8
2018-10-01T18:41:01.102Z,4.0
2018-10-01T18:46:01.090Z,4.1
2018-10-01T18:51:01.234Z,4.4
2018-10-01T18:56:01.092Z,5.0
2018-10-01T19:01:01.094Z,5.6
2018-10-01T19:06:01.221Z,5.2
2018-10-01T19:11:06.176Z,4.7
2018-10-01T19:16:01.134Z,4.2
2018-10-01T19:21:01.176Z,4.0
2018-10-01T19:26:06.144Z,3.4
2018-10-01T19:31:06.098Z,3.6
2018-10-01T19:36:01.150Z,4.0
2018-10-01T19:41:01.191Z,4.4
2018-10-01T19:46:01.121Z,3.8
2018-10-01T19:51:06.418Z,4.2
2018-10-01T19:56:01.119Z,3.9
2018-10-01T20:01:01.141Z,3.7
2018-10-01T20:06:01.102Z,3.4
2018-10-01T20:11:01.125Z,3.6
2018-10-01T20:16:01.134Z,3.5
2018-10-01T20:21:01.116Z,3.8
2018-10-01T20:26:01.232Z,4.4
2018-10-01T20:31:01.094Z,4.8
2018-10-01T20:36:01.253Z,4.9
2018-10-01T20:41:01.182Z,5.1
2018-10-01T20:46:01.103Z,4.8
2018-10-01T20:51:01.092Z,4.4
2018-10-01T21:06:01.100Z,3.8
2018-10-01T21:11:01.098Z,4.2
2018-10-01T21:16:01.099Z,4.0
2018-10-01T21:21:01.104Z,3.7
2018-10-01T21:26:01.102Z,3.5
2018-10-01T21:31:01.817Z,4.1
2018-10-01T21:36:01.105Z,3.9
2018-10-01T21:41:01.126Z,4.0
2018-10-01T21:46:01.097Z,4.2
2018-10-01T21:51:01.100Z,4.7
2018-10-01T21:56:01.104Z,4.2
2018-10-01T22:01:01.104Z,4.5
2018-10-01T22:06:01.107Z,4.9
2018-10-01T22:11:01.112Z,4.7
2018-10-01T22:16:01.097Z,4.8
2018-10-01T22:21:01.098Z,5.0
2018-10-01T22:26:01.092Z,4.6
2018-10-01T22:31:01.096Z,4.2
2018-10-01T22:36:01.100Z,4.3
2018-10-01T22:41:01.109Z,4.2
2018-10-01T22:46:01.107Z,3.7
2018-10-01T22:51:01.090Z,3.8
2018-10-01T22:56:03.196Z,3.6
2018-10-01T23:01:01.105Z,4.2
2018-10-01T23:06:01.092Z,4.1
2018-10-01T23:11:01.093Z,4.0
2018-10-01T23:16:01.096Z,3.7
2018-10-01T23:21:01.097Z,3.2
2018-10-01T23:26:01.105Z,2.3
2018-10-01T23:31:01.101Z,2.0
2018-10-01T23:36:01.090Z,2.6
2018-10-01T23:41:01.093Z,3.2
2018-10-01T23:46:01.091Z,3.3
2018-10-01T23:51:01.167Z,3.5
2018-10-01T23:56:01.181Z,3.4
